createdAt,value
2019-03-30T00:02:38.375Z,2.80
2019-03-30T00:05:07.489Z,2.90
2019-03-30T00:07:36.079Z,2.70
2019-03-30T00:17:30.691Z,2.80
2019-03-30T00:22:27.499Z,3.20
2019-03-30T00:27:24.403Z,2.60
2019-03-30T00:32:21.235Z,2.70
2019-03-30T00:34:49.799Z,2.70
2019-03-30T00:37:18.434Z,2.50
2019-03-30T00:42:15.251Z,2.70
2019-03-30T00:44:43.796Z,2.70
2019-03-30T00:47:12.382Z,2.70
2019-03-30T00:49:50.057Z,2.60
2019-03-30T00:54:47.194Z,2.40
2019-03-30T01:02:12.483Z,2.00
2019-03-30T01:09:37.749Z,1.80
2019-03-30T01:12:06.341Z,2.10
2019-03-30T01:24:28.383Z,1.90
2019-03-30T01:26:56.995Z,1.80
2019-03-30T01:31:53.795Z,1.90
2019-03-30T01:34:22.401Z,1.90
2019-03-30T01:39:19.215Z,1.70
2019-03-30T01:41:47.845Z,1.50
2019-03-30T01:44:16.407Z,1.60
2019-03-30T01:49:13.210Z,1.50
2019-03-30T01:56:38.349Z,1.30
2019-03-30T02:06:31.673Z,1.20
2019-03-30T02:11:29.371Z,1.20
2019-03-30T02:13:57.947Z,1.10
2019-03-30T02:18:54.797Z,1.30
2019-03-30T02:26:19.943Z,1.40
2019-03-30T02:31:16.756Z,1.10
2019-03-30T02:33:45.396Z,1.10
2019-03-30T02:36:13.965Z,1.10
2019-03-30T02:38:42.529Z,0.80
2019-03-30T02:41:11.105Z,1.00
2019-03-30T02:43:39.679Z,1.00
2019-03-30T02:46:08.252Z,0.70
2019-03-30T02:48:36.899Z,0.70
2019-03-30T02:56:01.905Z,0.70
2019-03-30T03:00:58.733Z,0.90
2019-03-30T03:03:27.343Z,0.90
2019-03-30T03:05:55.986Z,0.40
2019-03-30T03:10:52.796Z,0.70
2019-03-30T03:13:21.354Z,0.60
2019-03-30T03:15:49.952Z,0.50
2019-03-30T03:23:15.009Z,0.50
2019-03-30T03:25:43.610Z,0.50
2019-03-30T03:28:12.173Z,0.90
2019-03-30T03:30:40.776Z,0.60
2019-03-30T03:33:09.333Z,0.30
2019-03-30T03:35:37.899Z,0.50
2019-03-30T03:40:34.819Z,0.40
2019-03-30T03:47:59.907Z,0.50
2019-03-30T03:53:14.497Z,0.50
2019-03-30T03:55:43.422Z,0.70
2019-03-30T04:00:40.944Z,0.50
2019-03-30T04:03:11.210Z,0.40
2019-03-30T04:05:41.838Z,0.40
2019-03-30T04:08:12.894Z,0.40
2019-03-30T04:10:43.697Z,0.50
2019-03-30T04:13:14.342Z,0.50
2019-03-30T04:18:11.471Z,0.20
2019-03-30T04:20:40.195Z,0.10
2019-03-30T04:23:08.804Z,0.00
2019-03-30T04:25:37.404Z,-0.10
2019-03-30T04:28:05.974Z,-0.20
2019-03-30T04:30:34.588Z,0.00
2019-03-30T04:33:03.154Z,-0.20
2019-03-30T04:40:28.221Z,0.10
2019-03-30T04:42:56.879Z,0.00
2019-03-30T04:45:25.475Z,-0.10
2019-03-30T04:47:54.027Z,1.20
2019-03-30T04:50:22.703Z,-0.10
2019-03-30T04:52:51.287Z,-0.10
2019-03-30T04:55:19.850Z,0.00
2019-03-30T05:00:18.500Z,1.00
2019-03-30T05:02:47.104Z,0.00
2019-03-30T05:10:12.603Z,0.00
2019-03-30T05:12:41.199Z,-0.20
2019-03-30T05:15:11.101Z,0.30
2019-03-30T05:17:47.362Z,-0.10
2019-03-30T05:20:10.953Z,-0.30
2019-03-30T05:22:39.591Z,0.00
2019-03-30T05:25:08.344Z,0.10
2019-03-30T05:27:36.907Z,0.10
2019-03-30T05:30:07.559Z,-0.10
2019-03-30T05:32:36.182Z,0.20
2019-03-30T05:35:06.578Z,0.10
2019-03-30T05:37:35.204Z,-0.20
2019-03-30T05:40:05.359Z,-0.30
2019-03-30T05:42:33.905Z,0.20
2019-03-30T05:45:02.486Z,0.20
2019-03-30T05:47:31.135Z,0.50
2019-03-30T05:52:28.093Z,0.40
2019-03-30T05:54:56.724Z,0.50
2019-03-30T05:57:25.387Z,0.60
2019-03-30T06:02:23.855Z,0.60
2019-03-30T06:04:52.452Z,0.70
2019-03-30T06:07:21.015Z,1.00
2019-03-30T06:09:49.584Z,0.70
2019-03-30T06:12:18.152Z,0.80
2019-03-30T06:14:46.815Z,1.00
2019-03-30T06:17:15.380Z,0.80
2019-03-30T06:19:44.009Z,1.20
2019-03-30T06:24:40.850Z,1.70
2019-03-30T06:27:09.469Z,1.40
2019-03-30T06:32:06.309Z,2.00
2019-03-30T06:34:34.888Z,2.00
2019-03-30T06:37:03.508Z,1.70
2019-03-30T06:39:32.052Z,2.20
2019-03-30T06:42:00.608Z,2.30
2019-03-30T06:44:29.200Z,2.30
2019-03-30T06:46:57.768Z,2.30
2019-03-30T06:54:22.850Z,2.80
2019-03-30T06:56:51.449Z,3.10
2019-03-30T06:59:20.080Z,2.90
2019-03-30T07:01:48.914Z,3.40
2019-03-30T07:04:17.636Z,3.40
2019-03-30T07:06:47.632Z,3.60
2019-03-30T07:11:47.717Z,4.00
2019-03-30T07:14:16.651Z,4.10
2019-03-30T07:16:47.253Z,3.90
2019-03-30T07:21:44.271Z,3.90
2019-03-30T07:24:12.862Z,4.30
2019-03-30T07:26:41.451Z,4.40
2019-03-30T07:29:10.142Z,5.40
2019-03-30T07:31:38.683Z,4.50
2019-03-30T07:36:35.495Z,5.00
2019-03-30T07:39:04.950Z,4.80
2019-03-30T07:41:33.502Z,4.90
2019-03-30T07:44:02.156Z,5.20
2019-03-30T07:46:30.713Z,5.30
2019-03-30T07:48:59.342Z,5.70
2019-03-30T07:53:56.266Z,5.80
2019-03-30T07:56:24.816Z,5.80
2019-03-30T07:58:53.399Z,6.10
2019-03-30T08:01:21.997Z,6.40
2019-03-30T08:03:50.657Z,6.30
2019-03-30T08:06:19.189Z,6.70
2019-03-30T08:13:44.245Z,7.40
2019-03-30T08:16:12.937Z,7.50
2019-03-30T08:18:41.509Z,7.80
2019-03-30T08:21:10.099Z,8.50
2019-03-30T08:23:40.569Z,8.90
2019-03-30T08:33:33.727Z,10.10
2019-03-30T08:36:02.393Z,10.70
2019-03-30T08:38:30.981Z,11.00
2019-03-30T08:40:59.611Z,11.80
2019-03-30T08:45:56.496Z,12.70
2019-03-30T08:48:25.059Z,13.40
2019-03-30T08:50:53.721Z,12.60
2019-03-30T08:53:22.346Z,13.20
2019-03-30T08:55:50.939Z,13.30
2019-03-30T08:58:19.683Z,13.10
2019-03-30T09:00:48.265Z,13.20
2019-03-30T09:03:16.825Z,12.90
2019-03-30T09:05:45.466Z,14.10
2019-03-30T09:08:13.991Z,14.30
2019-03-30T09:10:42.683Z,15.00
2019-03-30T09:13:11.241Z,15.10
2019-03-30T09:15:39.830Z,14.40
2019-03-30T09:18:08.429Z,14.20
2019-03-30T09:23:05.356Z,14.90
2019-03-30T09:25:33.983Z,15.30
2019-03-30T09:28:02.546Z,15.60
2019-03-30T09:30:31.274Z,15.50
2019-03-30T09:33:00.033Z,15.10
2019-03-30T09:35:28.682Z,14.90
2019-03-30T09:37:57.242Z,15.20
2019-03-30T09:40:25.824Z,15.50
2019-03-30T09:42:54.403Z,16.10
2019-03-30T09:45:23.075Z,16.90
2019-03-30T09:47:51.638Z,16.90
2019-03-30T09:50:20.249Z,17.30
2019-03-30T09:52:48.844Z,17.70
2019-03-30T09:55:17.416Z,17.40
2019-03-30T09:57:46.300Z,17.10
2019-03-30T10:00:15.090Z,17.10
2019-03-30T10:02:43.739Z,17.70
2019-03-30T10:05:12.474Z,17.90
2019-03-30T10:07:41.146Z,18.20
2019-03-30T10:10:09.820Z,18.00
2019-03-30T10:12:38.428Z,18.20
2019-03-30T10:15:07.775Z,18.30
2019-03-30T10:17:36.332Z,18.40
2019-03-30T10:20:08.162Z,19.10
2019-03-30T10:25:06.112Z,19.00
2019-03-30T10:27:34.674Z,18.80
2019-03-30T10:30:03.416Z,18.50
2019-03-30T10:32:31.989Z,18.20
2019-03-30T10:35:00.556Z,17.80
2019-03-30T10:37:29.152Z,18.40
2019-03-30T10:39:57.719Z,19.20
2019-03-30T10:42:26.311Z,18.20
2019-03-30T10:44:54.880Z,19.00
2019-03-30T10:47:23.472Z,18.40
2019-03-30T10:49:52.073Z,18.60
2019-03-30T10:52:20.740Z,19.30
2019-03-30T10:54:52.907Z,19.80
2019-03-30T10:59:47.878Z,19.00
2019-03-30T11:02:16.487Z,19.10
2019-03-30T11:07:13.394Z,20.10
2019-03-30T11:09:41.956Z,19.70
2019-03-30T11:12:10.555Z,20.10
2019-03-30T11:14:39.104Z,19.80
2019-03-30T11:17:07.684Z,20.00
2019-03-30T11:19:36.256Z,19.90
2019-03-30T11:22:04.995Z,20.50
2019-03-30T11:24:33.619Z,20.90
2019-03-30T11:27:02.210Z,20.50
2019-03-30T11:29:30.769Z,20.10
2019-03-30T11:32:00.914Z,20.10
2019-03-30T11:34:29.634Z,20.30
2019-03-30T11:39:26.409Z,21.00
2019-03-30T11:41:55.033Z,20.30
2019-03-30T11:44:23.592Z,20.00
2019-03-30T11:46:52.236Z,19.90
2019-03-30T11:49:20.821Z,20.10
2019-03-30T11:51:49.433Z,20.00
2019-03-30T11:54:18.006Z,20.10
2019-03-30T11:56:46.581Z,20.90
2019-03-30T12:01:43.457Z,20.50
2019-03-30T12:04:12.102Z,21.00
2019-03-30T12:06:40.706Z,20.70
2019-03-30T12:09:09.615Z,21.00
2019-03-30T12:11:38.341Z,19.70
2019-03-30T12:14:06.947Z,20.50
2019-03-30T12:16:35.547Z,21.00
2019-03-30T12:19:04.382Z,20.20
2019-03-30T12:21:33.061Z,20.60
2019-03-30T12:24:01.697Z,21.00
2019-03-30T12:26:30.255Z,21.00
2019-03-30T12:28:58.828Z,21.00
2019-03-30T12:36:24.031Z,20.90
2019-03-30T12:46:17.640Z,21.60
2019-03-30T12:48:46.124Z,21.60
2019-03-30T12:51:14.685Z,21.70
2019-03-30T12:53:50.096Z,21.80
2019-03-30T12:56:13.468Z,21.50
2019-03-30T13:01:10.258Z,20.50
2019-03-30T13:06:06.912Z,20.20
2019-03-30T13:08:35.665Z,19.00
2019-03-30T13:11:04.209Z,18.90
2019-03-30T13:13:32.774Z,18.90
2019-03-30T13:16:01.347Z,18.50
2019-03-30T13:18:29.942Z,18.70
2019-03-30T13:20:58.466Z,18.70
2019-03-30T13:23:27.017Z,18.60
2019-03-30T13:26:03.416Z,18.50
2019-03-30T13:30:54.096Z,18.70
2019-03-30T13:33:22.613Z,18.50
2019-03-30T13:35:51.074Z,18.70
2019-03-30T13:40:49.455Z,18.70
2019-03-30T13:43:18.049Z,18.60
2019-03-30T13:53:11.273Z,18.30
2019-03-30T13:55:39.733Z,18.80
2019-03-30T13:58:08.211Z,18.90
2019-03-30T14:00:36.677Z,19.00
2019-03-30T14:03:05.316Z,18.60
2019-03-30T14:08:02.013Z,18.90
2019-03-30T14:10:30.503Z,18.60
2019-03-30T14:12:58.943Z,18.80
2019-03-30T14:15:27.512Z,18.90
2019-03-30T14:17:56.071Z,18.80
2019-03-30T14:20:24.570Z,19.20
2019-03-30T14:22:53.098Z,19.20
2019-03-30T14:27:49.765Z,19.20
2019-03-30T14:30:19.931Z,18.70
2019-03-30T14:32:48.474Z,18.80
2019-03-30T14:37:45.113Z,18.40
2019-03-30T14:40:13.910Z,18.40
2019-03-30T14:42:42.409Z,18.20
2019-03-30T14:45:11.380Z,18.30
2019-03-30T14:47:39.934Z,18.20
2019-03-30T14:50:09.438Z,18.40
2019-03-30T14:52:38.032Z,18.60
2019-03-30T14:55:08.682Z,20.60
2019-03-30T14:57:37.266Z,18.20
2019-03-30T15:00:08.910Z,18.30
2019-03-30T15:02:37.470Z,18.20
2019-03-30T15:05:08.455Z,18.10
2019-03-30T15:07:37.006Z,17.80
2019-03-30T15:12:35.446Z,17.50
2019-03-30T15:15:06.205Z,17.50
2019-03-30T15:17:34.719Z,17.30
2019-03-30T15:20:03.575Z,16.90
2019-03-30T15:25:00.464Z,17.50
2019-03-30T15:29:57.426Z,17.60
2019-03-30T15:32:25.875Z,17.40
2019-03-30T15:34:54.456Z,17.40
2019-03-30T15:37:23.006Z,17.60
2019-03-30T15:39:51.526Z,17.20
2019-03-30T15:42:20.041Z,17.30
2019-03-30T15:44:48.492Z,17.30
2019-03-30T15:47:17.044Z,17.20
2019-03-30T15:49:45.506Z,17.10
2019-03-30T15:52:14.523Z,17.10
2019-03-30T15:54:43.084Z,17.40
2019-03-30T15:59:41.548Z,17.40
2019-03-30T16:07:06.985Z,17.10
2019-03-30T16:09:35.708Z,17.00
2019-03-30T16:12:04.245Z,17.00
2019-03-30T16:14:32.825Z,16.90
2019-03-30T16:17:01.322Z,16.60
2019-03-30T16:19:29.823Z,16.80
2019-03-30T16:21:58.423Z,16.50
2019-03-30T16:24:30.004Z,16.50
2019-03-30T16:29:25.464Z,16.40
2019-03-30T16:31:53.912Z,16.10
2019-03-30T16:34:22.555Z,16.20
2019-03-30T16:36:51.008Z,15.90
2019-03-30T16:39:19.572Z,15.90
2019-03-30T16:41:48.088Z,16.20
2019-03-30T16:46:44.856Z,15.80
2019-03-30T16:49:13.426Z,15.50
2019-03-30T16:51:41.944Z,15.40
2019-03-30T16:54:10.413Z,15.30
2019-03-30T16:56:38.944Z,15.10
2019-03-30T17:01:35.665Z,15.00
2019-03-30T17:04:04.317Z,14.90
2019-03-30T17:06:32.777Z,14.70
2019-03-30T17:09:01.229Z,14.60
2019-03-30T17:11:29.765Z,14.70
2019-03-30T17:18:54.522Z,14.20
2019-03-30T17:21:23.040Z,14.30
2019-03-30T17:23:51.565Z,14.10
2019-03-30T17:26:20.123Z,14.00
2019-03-30T17:28:48.627Z,14.10
2019-03-30T17:31:17.253Z,13.70
2019-03-30T17:36:13.997Z,13.50
2019-03-30T17:38:42.511Z,13.60
2019-03-30T17:41:11.086Z,13.30
2019-03-30T17:51:04.390Z,13.10
2019-03-30T17:53:32.994Z,13.00
2019-03-30T18:08:23.534Z,12.10
2019-03-30T18:10:52.015Z,12.00
2019-03-30T18:15:48.620Z,11.60
2019-03-30T18:20:45.258Z,11.00
2019-03-30T18:23:13.811Z,11.40
2019-03-30T18:25:42.273Z,11.10
2019-03-30T18:28:10.832Z,11.30
2019-03-30T18:33:08.734Z,10.90
2019-03-30T18:35:39.405Z,10.60
2019-03-30T18:38:08.144Z,10.30
2019-03-30T18:40:36.930Z,10.30
2019-03-30T18:45:33.683Z,9.90
2019-03-30T18:48:16.193Z,9.90
2019-03-30T18:50:45.898Z,10.10
2019-03-30T18:53:16.577Z,9.80
2019-03-30T18:55:45.136Z,9.70
2019-03-30T19:03:10.070Z,9.50
2019-03-30T19:05:38.558Z,9.20
2019-03-30T19:08:07.071Z,9.30
2019-03-30T19:10:35.694Z,9.50
2019-03-30T19:15:32.527Z,9.30
2019-03-30T19:18:00.980Z,9.20
2019-03-30T19:20:29.462Z,8.90
2019-03-30T19:22:57.990Z,8.70
2019-03-30T19:27:56.356Z,8.10
2019-03-30T19:32:53.185Z,8.20
2019-03-30T19:40:17.934Z,8.00
2019-03-30T19:42:46.448Z,7.80
2019-03-30T19:47:44.420Z,8.00
2019-03-30T19:52:41.698Z,8.00
2019-03-30T20:07:33.851Z,7.60
2019-03-30T20:22:23.665Z,7.30
2019-03-30T20:24:52.196Z,7.30
2019-03-30T20:27:20.708Z,7.60
2019-03-30T20:29:49.188Z,7.20
2019-03-30T20:49:34.961Z,6.60
2019-03-30T20:52:03.477Z,6.40
2019-03-30T20:54:31.994Z,5.80
2019-03-30T20:59:39.403Z,6.20
2019-03-30T21:01:58.939Z,6.30
2019-03-30T21:04:27.439Z,6.40
2019-03-30T21:06:55.926Z,6.30
2019-03-30T21:09:24.435Z,6.10
2019-03-30T21:14:21.041Z,5.80
2019-03-30T21:16:49.511Z,5.40
2019-03-30T21:19:18.045Z,5.90
2019-03-30T21:26:42.945Z,6.30
2019-03-30T21:31:39.540Z,5.70
2019-03-30T21:34:09.847Z,5.60
2019-03-30T21:36:38.329Z,5.90
2019-03-30T21:41:36.593Z,5.50
2019-03-30T21:56:26.223Z,5.50
2019-03-30T21:58:54.751Z,5.20
2019-03-30T22:16:13.302Z,5.10
2019-03-30T22:18:41.776Z,5.00
2019-03-30T22:21:10.299Z,5.00
2019-03-30T22:23:38.740Z,5.10
2019-03-30T22:26:07.376Z,5.30
2019-03-30T22:31:04.006Z,4.80
2019-03-30T22:33:32.492Z,4.50
2019-03-30T22:36:01.012Z,4.70
2019-03-30T22:38:29.487Z,4.60
2019-03-30T22:40:58.034Z,4.50
2019-03-30T22:45:54.740Z,4.90
2019-03-30T22:48:23.180Z,3.90
2019-03-30T22:50:51.668Z,4.20
2019-03-30T23:05:42.697Z,4.50
2019-03-30T23:08:11.252Z,4.10
2019-03-30T23:13:07.851Z,4.10
2019-03-30T23:15:36.400Z,4.30
2019-03-30T23:20:33.252Z,4.10
2019-03-30T23:23:01.753Z,3.80
2019-03-30T23:32:54.834Z,4.00
2019-03-30T23:35:23.278Z,4.00
2019-03-30T23:47:44.354Z,3.80
2019-03-30T23:50:12.822Z,3.50
2019-03-30T23:57:37.614Z,3.80
